sensor_id;sensor_type;location;lat;lon;timestamp;P1;durP1;ratioP1;P2;durP2;ratioP2
73104;SDS011;61296;50.526;30.792;2023-05-07T00:00:43;7.90;;;3.50;;
73104;SDS011;61296;50.526;30.792;2023-05-07T00:16:03;8.35;;;4.25;;
73104;SDS011;61296;50.526;30.792;2023-05-07T00:31:23;10.27;;;3.63;;
73104;SDS011;61296;50.526;30.792;2023-05-07T00:46:42;9.43;;;4.28;;
73104;SDS011;61296;50.526;30.792;2023-05-07T01:02:02;9.30;;;3.70;;
73104;SDS011;61296;50.526;30.792;2023-05-07T01:17:22;8.38;;;4.13;;
73104;SDS011;61296;50.526;30.792;2023-05-07T01:32:43;6.93;;;3.55;;
73104;SDS011;61296;50.526;30.792;2023-05-07T01:48:04;4.32;;;2.40;;
73104;SDS011;61296;50.526;30.792;2023-05-07T02:03:23;5.55;;;2.80;;
73104;SDS011;61296;50.526;30.792;2023-05-07T02:18:52;6.88;;;2.72;;
73104;SDS011;61296;50.526;30.792;2023-05-07T02:34:11;6.57;;;2.60;;
73104;SDS011;61296;50.526;30.792;2023-05-07T02:49:31;8.43;;;2.95;;
73104;SDS011;61296;50.526;30.792;2023-05-07T03:04:51;10.13;;;3.28;;
73104;SDS011;61296;50.526;30.792;2023-05-07T03:20:12;7.47;;;3.60;;
73104;SDS011;61296;50.526;30.792;2023-05-07T03:35:33;9.38;;;3.17;;
73104;SDS011;61296;50.526;30.792;2023-05-07T03:50:53;4.45;;;2.35;;
73104;SDS011;61296;50.526;30.792;2023-05-07T04:06:15;5.18;;;2.85;;
73104;SDS011;61296;50.526;30.792;2023-05-07T04:21:37;6.18;;;2.42;;
73104;SDS011;61296;50.526;30.792;2023-05-07T04:36:58;5.93;;;2.53;;
73104;SDS011;61296;50.526;30.792;2023-05-07T04:52:18;5.22;;;2.72;;
73104;SDS011;61296;50.526;30.792;2023-05-07T05:07:38;10.77;;;2.78;;
73104;SDS011;61296;50.526;30.792;2023-05-07T05:22:57;4.88;;;2.40;;
73104;SDS011;61296;50.526;30.792;2023-05-07T05:38:17;8.40;;;2.65;;
73104;SDS011;61296;50.526;30.792;2023-05-07T05:53:37;6.90;;;3.03;;
73104;SDS011;61296;50.526;30.792;2023-05-07T06:08:58;5.95;;;3.05;;
73104;SDS011;61296;50.526;30.792;2023-05-07T06:24:24;3.83;;;2.50;;
73104;SDS011;61296;50.526;30.792;2023-05-07T06:39:43;4.88;;;2.47;;
73104;SDS011;61296;50.526;30.792;2023-05-07T06:55:05;3.67;;;2.13;;
73104;SDS011;61296;50.526;30.792;2023-05-07T07:10:25;5.43;;;2.25;;
73104;SDS011;61296;50.526;30.792;2023-05-07T07:25:46;2.85;;;1.73;;
73104;SDS011;61296;50.526;30.792;2023-05-07T07:41:07;3.40;;;1.52;;
73104;SDS011;61296;50.526;30.792;2023-05-07T07:56:27;5.05;;;1.73;;
73104;SDS011;61296;50.526;30.792;2023-05-07T08:11:47;2.47;;;1.40;;
73104;SDS011;61296;50.526;30.792;2023-05-07T08:27:07;5.72;;;1.25;;
73104;SDS011;61296;50.526;30.792;2023-05-07T08:42:27;3.30;;;1.48;;
73104;SDS011;61296;50.526;30.792;2023-05-07T08:57:49;6.15;;;1.52;;
73104;SDS011;61296;50.526;30.792;2023-05-07T09:13:10;2.88;;;1.73;;
73104;SDS011;61296;50.526;30.792;2023-05-07T09:28:32;2.38;;;1.70;;
73104;SDS011;61296;50.526;30.792;2023-05-07T09:43:57;3.97;;;1.50;;
73104;SDS011;61296;50.526;30.792;2023-05-07T09:59:26;3.10;;;1.52;;
73104;SDS011;61296;50.526;30.792;2023-05-07T10:14:46;2.08;;;1.38;;
73104;SDS011;61296;50.526;30.792;2023-05-07T10:45:42;2.63;;;1.70;;
73104;SDS011;61296;50.526;30.792;2023-05-07T11:01:02;2.90;;;1.30;;
73104;SDS011;61296;50.526;30.792;2023-05-07T11:16:30;2.67;;;1.30;;
73104;SDS011;61296;50.526;30.792;2023-05-07T11:32:00;2.97;;;1.30;;
73104;SDS011;61296;50.526;30.792;2023-05-07T11:47:26;3.42;;;1.27;;
73104;SDS011;61296;50.526;30.792;2023-05-07T12:02:49;3.25;;;1.17;;
73104;SDS011;61296;50.526;30.792;2023-05-07T12:18:08;3.97;;;1.40;;
73104;SDS011;61296;50.526;30.792;2023-05-07T12:33:27;2.80;;;1.13;;
73104;SDS011;61296;50.526;30.792;2023-05-07T12:48:47;2.42;;;1.33;;
73104;SDS011;61296;50.526;30.792;2023-05-07T13:04:07;2.17;;;1.50;;
73104;SDS011;61296;50.526;30.792;2023-05-07T13:19:26;6.90;;;2.70;;
73104;SDS011;61296;50.526;30.792;2023-05-07T13:34:46;2.53;;;1.30;;
73104;SDS011;61296;50.526;30.792;2023-05-07T13:50:06;3.22;;;1.80;;
73104;SDS011;61296;50.526;30.792;2023-05-07T14:05:27;2.45;;;1.70;;
73104;SDS011;61296;50.526;30.792;2023-05-07T14:20:46;6.88;;;2.40;;
73104;SDS011;61296;50.526;30.792;2023-05-07T14:36:07;2.92;;;1.90;;
73104;SDS011;61296;50.526;30.792;2023-05-07T14:51:26;2.47;;;1.70;;
73104;SDS011;61296;50.526;30.792;2023-05-07T15:06:47;3.38;;;1.20;;
73104;SDS011;61296;50.526;30.792;2023-05-07T15:22:07;3.17;;;1.58;;
73104;SDS011;61296;50.526;30.792;2023-05-07T15:37:28;4.30;;;1.63;;
73104;SDS011;61296;50.526;30.792;2023-05-07T15:52:49;2.88;;;1.70;;
73104;SDS011;61296;50.526;30.792;2023-05-07T16:08:08;4.07;;;2.60;;
73104;SDS011;61296;50.526;30.792;2023-05-07T16:23:29;7.10;;;2.90;;
73104;SDS011;61296;50.526;30.792;2023-05-07T16:38:48;5.70;;;2.85;;
73104;SDS011;61296;50.526;30.792;2023-05-07T16:54:08;4.75;;;2.15;;
73104;SDS011;61296;50.526;30.792;2023-05-07T17:09:27;6.25;;;3.00;;
73104;SDS011;61296;50.526;30.792;2023-05-07T17:24:48;6.57;;;2.45;;
73104;SDS011;61296;50.526;30.792;2023-05-07T17:40:08;5.55;;;2.63;;
73104;SDS011;61296;50.526;30.792;2023-05-07T17:55:28;15.13;;;5.20;;
73104;SDS011;61296;50.526;30.792;2023-05-07T18:10:48;13.75;;;4.25;;
73104;SDS011;61296;50.526;30.792;2023-05-07T18:26:07;9.32;;;4.97;;
73104;SDS011;61296;50.526;30.792;2023-05-07T18:41:30;6.00;;;2.10;;
73104;SDS011;61296;50.526;30.792;2023-05-07T18:56:51;5.82;;;2.20;;
73104;SDS011;61296;50.526;30.792;2023-05-07T19:12:11;8.13;;;2.40;;
73104;SDS011;61296;50.526;30.792;2023-05-07T19:27:30;5.07;;;2.28;;
73104;SDS011;61296;50.526;30.792;2023-05-07T19:42:51;4.25;;;2.60;;
73104;SDS011;61296;50.526;30.792;2023-05-07T19:58:10;5.53;;;2.65;;
73104;SDS011;61296;50.526;30.792;2023-05-07T20:13:33;5.05;;;2.70;;
73104;SDS011;61296;50.526;30.792;2023-05-07T20:28:53;6.85;;;2.92;;
73104;SDS011;61296;50.526;30.792;2023-05-07T20:44:15;7.32;;;3.00;;
73104;SDS011;61296;50.526;30.792;2023-05-07T20:59:35;6.28;;;2.15;;
73104;SDS011;61296;50.526;30.792;2023-05-07T21:14:55;4.03;;;2.35;;
73104;SDS011;61296;50.526;30.792;2023-05-07T21:30:14;7.95;;;4.55;;
73104;SDS011;61296;50.526;30.792;2023-05-07T21:45:34;4.20;;;2.60;;
73104;SDS011;61296;50.526;30.792;2023-05-07T22:00:54;6.68;;;2.78;;
73104;SDS011;61296;50.526;30.792;2023-05-07T22:33:07;5.37;;;2.67;;
73104;SDS011;61296;50.526;30.792;2023-05-07T22:48:27;5.43;;;2.65;;
73104;SDS011;61296;50.526;30.792;2023-05-07T23:03:46;6.25;;;2.92;;
73104;SDS011;61296;50.526;30.792;2023-05-07T23:19:06;7.65;;;2.80;;
73104;SDS011;61296;50.526;30.792;2023-05-07T23:34:26;4.60;;;2.88;;
73104;SDS011;61296;50.526;30.792;2023-05-07T23:49:45;6.72;;;2.88;;
